createdAt,value
2019-05-05T00:01:05.745Z,3.10
2019-05-05T00:03:37.135Z,3.10
2019-05-05T00:06:06.597Z,3.00
2019-05-05T00:08:35.041Z,3.10
2019-05-05T00:11:01.160Z,3.10
2019-05-05T00:13:39.552Z,3.10
2019-05-05T00:16:24.627Z,3.10
2019-05-05T00:18:54.306Z,3.10
2019-05-05T00:21:20.872Z,3.10
2019-05-05T00:23:48.194Z,3.10
2019-05-05T00:26:15.034Z,3.10
2019-05-05T00:28:41.542Z,3.10
2019-05-05T00:31:08.047Z,3.10
2019-05-05T00:33:34.756Z,3.10
2019-05-05T00:36:01.193Z,3.10
2019-05-05T00:38:28.677Z,3.10
2019-05-05T00:40:55.186Z,3.10
2019-05-05T00:43:21.919Z,3.10
2019-05-05T00:45:50.175Z,3.10
2019-05-05T00:48:21.191Z,3.00
2019-05-05T00:50:47.560Z,3.00
2019-05-05T00:53:14.620Z,3.10
2019-05-05T00:55:41.148Z,3.10
2019-05-05T00:58:07.503Z,3.10
2019-05-05T01:00:50.693Z,3.20
2019-05-05T01:03:18.950Z,3.20
2019-05-05T01:05:47.195Z,3.20
2019-05-05T01:08:15.489Z,3.10
2019-05-05T01:10:44.224Z,3.10
2019-05-05T01:13:10.284Z,3.10
2019-05-05T01:15:36.629Z,3.10
2019-05-05T01:18:04.723Z,3.20
2019-05-05T01:20:31.581Z,3.20
2019-05-05T01:22:58.280Z,3.20
2019-05-05T01:25:25.345Z,3.20
2019-05-05T01:27:51.987Z,3.30
2019-05-05T01:30:20.933Z,3.30
2019-05-05T01:32:49.289Z,3.30
2019-05-05T01:35:15.580Z,3.20
2019-05-05T01:37:44.326Z,3.20
2019-05-05T01:40:27.001Z,3.20
2019-05-05T01:42:54.761Z,3.20
2019-05-05T01:45:21.381Z,3.20
2019-05-05T01:47:47.735Z,3.10
2019-05-05T01:50:20.639Z,3.20
2019-05-05T01:52:42.288Z,3.20
2019-05-05T01:55:08.721Z,3.20
2019-05-05T01:57:35.091Z,3.20
2019-05-05T02:00:05.257Z,3.20
2019-05-05T02:02:34.153Z,3.20
2019-05-05T02:05:00.511Z,3.10
2019-05-05T02:07:26.969Z,3.10
2019-05-05T02:09:55.350Z,3.20
2019-05-05T02:12:21.684Z,3.20
2019-05-05T02:14:48.315Z,3.20
2019-05-05T02:17:14.679Z,3.10
2019-05-05T02:19:41.001Z,3.10
2019-05-05T02:22:07.455Z,3.10
2019-05-05T02:24:35.367Z,3.20
2019-05-05T02:27:05.127Z,3.10
2019-05-05T02:29:36.818Z,3.10
2019-05-05T02:32:15.745Z,3.20
2019-05-05T02:34:45.641Z,3.00
2019-05-05T02:37:12.302Z,3.00
2019-05-05T02:39:45.049Z,3.00
2019-05-05T02:42:07.077Z,3.10
2019-05-05T02:44:34.774Z,3.00
2019-05-05T02:47:06.657Z,3.00
2019-05-05T02:49:35.205Z,3.00
2019-05-05T02:52:04.703Z,3.00
2019-05-05T02:54:33.827Z,3.00
2019-05-05T02:57:00.795Z,3.00
2019-05-05T02:59:30.651Z,3.00
2019-05-05T03:02:08.150Z,2.90
2019-05-05T03:04:35.137Z,2.90
2019-05-05T03:07:04.679Z,2.70
2019-05-05T03:09:31.848Z,2.70
2019-05-05T03:12:02.200Z,2.60
2019-05-05T03:14:31.283Z,2.70
2019-05-05T03:16:57.896Z,2.70
2019-05-05T03:19:25.043Z,2.70
2019-05-05T03:21:52.160Z,2.60
2019-05-05T03:24:18.605Z,2.60
2019-05-05T03:26:46.108Z,2.70
2019-05-05T03:29:14.769Z,2.70
2019-05-05T03:31:41.143Z,2.70
2019-05-05T03:34:08.562Z,2.80
2019-05-05T03:36:35.208Z,2.80
2019-05-05T03:39:01.755Z,2.80
2019-05-05T03:41:34.638Z,2.90
2019-05-05T03:44:19.962Z,2.90
2019-05-05T03:46:47.014Z,3.00
2019-05-05T03:49:14.140Z,3.00
2019-05-05T03:51:40.567Z,3.10
2019-05-05T03:54:06.991Z,3.10
2019-05-05T03:56:34.925Z,2.90
2019-05-05T03:59:01.580Z,3.10
2019-05-05T04:01:38.152Z,3.20
2019-05-05T04:04:19.568Z,3.20
2019-05-05T04:06:47.244Z,3.20
2019-05-05T04:09:13.781Z,3.40
2019-05-05T04:11:40.686Z,3.60
2019-05-05T04:14:08.306Z,3.40
2019-05-05T04:16:43.595Z,3.30
2019-05-05T04:19:13.794Z,3.20
2019-05-05T04:21:40.168Z,3.30
2019-05-05T04:24:07.665Z,3.50
2019-05-05T04:26:34.021Z,3.80
2019-05-05T04:29:02.444Z,3.90
2019-05-05T04:31:28.630Z,4.10
2019-05-05T04:34:24.095Z,4.10
2019-05-05T04:36:51.526Z,4.20
2019-05-05T04:39:17.923Z,4.50
2019-05-05T04:41:44.378Z,4.50
2019-05-05T04:44:10.897Z,4.50
2019-05-05T04:46:37.581Z,4.30
2019-05-05T04:49:17.771Z,4.40
2019-05-05T04:51:50.062Z,4.40
2019-05-05T04:54:19.415Z,4.60
2019-05-05T04:56:45.740Z,4.80
2019-05-05T04:59:14.287Z,4.90
2019-05-05T05:01:40.697Z,5.00
2019-05-05T05:04:25.659Z,4.80
2019-05-05T05:06:54.298Z,4.60
2019-05-05T05:09:20.777Z,4.60
2019-05-05T05:11:47.091Z,4.60
2019-05-05T05:14:14.366Z,4.80
2019-05-05T05:16:40.824Z,5.00
2019-05-05T05:19:07.492Z,5.10
2019-05-05T05:21:34.266Z,5.20
2019-05-05T05:24:00.818Z,5.20
2019-05-05T05:26:28.241Z,5.30
2019-05-05T05:28:54.610Z,5.60
2019-05-05T05:31:20.970Z,5.60
2019-05-05T05:33:47.336Z,5.50
2019-05-05T05:36:14.424Z,5.30
2019-05-05T05:38:43.731Z,5.50
2019-05-05T05:41:13.654Z,5.50
2019-05-05T05:43:43.994Z,5.80
2019-05-05T05:46:18.523Z,5.90
2019-05-05T05:49:04.760Z,6.20
2019-05-05T05:51:31.120Z,6.40
2019-05-05T05:53:57.453Z,6.30
2019-05-05T05:56:24.964Z,6.20
2019-05-05T05:58:51.546Z,6.20
2019-05-05T06:01:17.943Z,6.30
2019-05-05T06:03:45.367Z,6.70
2019-05-05T06:06:13.728Z,6.80
2019-05-05T06:08:39.958Z,6.60
2019-05-05T06:11:06.732Z,6.60
2019-05-05T06:13:33.697Z,6.80
2019-05-05T06:16:00.167Z,7.20
2019-05-05T06:18:26.599Z,7.60
2019-05-05T06:20:53.779Z,7.80
2019-05-05T06:23:20.389Z,8.20
2019-05-05T06:25:47.616Z,8.40
2019-05-05T06:28:14.539Z,8.80
2019-05-05T06:30:41.397Z,8.90
2019-05-05T06:33:07.764Z,8.90
2019-05-05T06:35:34.606Z,8.90
2019-05-05T06:38:00.951Z,9.10
2019-05-05T06:40:29.198Z,9.10
2019-05-05T06:42:57.453Z,9.20
2019-05-05T06:45:34.458Z,9.10
2019-05-05T06:48:00.836Z,9.40
2019-05-05T06:50:27.187Z,9.70
2019-05-05T06:52:53.730Z,9.80
2019-05-05T06:55:20.120Z,9.90
2019-05-05T06:57:46.464Z,10.30
2019-05-05T07:00:13.965Z,10.40
2019-05-05T07:02:40.547Z,10.50
2019-05-05T07:05:07.027Z,10.50
2019-05-05T07:07:34.316Z,10.90
2019-05-05T07:10:00.836Z,10.80
2019-05-05T07:12:27.183Z,11.20
2019-05-05T07:14:53.887Z,11.40
2019-05-05T07:17:20.586Z,11.20
2019-05-05T07:19:47.052Z,11.60
2019-05-05T07:22:14.055Z,11.90
2019-05-05T07:24:43.515Z,11.40
2019-05-05T07:27:09.729Z,11.50
2019-05-05T07:29:36.369Z,11.10
2019-05-05T07:32:03.937Z,11.00
2019-05-05T07:34:33.507Z,11.00
2019-05-05T07:37:00.051Z,10.40
2019-05-05T07:39:26.434Z,10.00
2019-05-05T07:41:54.202Z,9.30
2019-05-05T07:44:26.603Z,9.10
2019-05-05T07:46:49.020Z,9.20
2019-05-05T07:49:15.356Z,9.20
2019-05-05T07:51:43.953Z,9.00
2019-05-05T07:54:09.930Z,9.40
2019-05-05T07:56:36.278Z,9.50
2019-05-05T07:59:04.005Z,9.70
2019-05-05T08:01:30.422Z,9.60
2019-05-05T08:03:57.764Z,9.80
2019-05-05T08:06:24.089Z,10.00
2019-05-05T08:08:51.246Z,10.00
2019-05-05T08:11:18.469Z,9.90
2019-05-05T08:13:45.377Z,10.10
2019-05-05T08:16:26.151Z,10.10
2019-05-05T08:19:11.239Z,9.50
2019-05-05T08:21:37.571Z,9.30
2019-05-05T08:24:13.858Z,10.10
2019-05-05T08:26:45.046Z,11.00
2019-05-05T08:29:29.885Z,11.10
2019-05-05T08:32:14.734Z,11.30
2019-05-05T08:34:55.084Z,10.80
2019-05-05T08:37:09.827Z,10.60
2019-05-05T08:39:36.150Z,10.40
2019-05-05T08:42:04.309Z,10.40
2019-05-05T08:44:31.009Z,10.60
2019-05-05T08:46:57.438Z,9.60
2019-05-05T08:49:24.402Z,10.10
2019-05-05T08:51:51.186Z,10.90
2019-05-05T08:54:17.541Z,11.40
2019-05-05T08:56:44.757Z,11.50
2019-05-05T08:59:11.176Z,11.70
2019-05-05T09:01:37.565Z,12.00
2019-05-05T09:04:04.185Z,11.70
2019-05-05T09:06:31.010Z,12.10
2019-05-05T09:08:59.607Z,12.50
2019-05-05T09:11:26.116Z,12.40
2019-05-05T09:13:54.638Z,11.90
2019-05-05T09:16:21.276Z,12.30
2019-05-05T09:19:01.370Z,12.40
2019-05-05T09:21:27.757Z,12.40
2019-05-05T09:23:59.996Z,11.90
2019-05-05T09:26:25.197Z,12.00
2019-05-05T09:28:56.244Z,12.00
2019-05-05T09:31:23.943Z,12.50
2019-05-05T09:33:50.476Z,12.10
2019-05-05T09:36:16.877Z,12.00
2019-05-05T09:38:45.004Z,12.30
2019-05-05T09:41:11.427Z,12.00
2019-05-05T09:43:37.773Z,11.90
2019-05-05T09:46:04.135Z,11.90
2019-05-05T09:48:33.580Z,12.10
2019-05-05T09:51:00.110Z,12.50
2019-05-05T09:53:27.426Z,12.20
2019-05-05T09:55:54.737Z,11.60
2019-05-05T09:58:21.665Z,11.40
2019-05-05T10:00:48.097Z,11.30
2019-05-05T10:03:14.805Z,11.30
2019-05-05T10:05:42.667Z,12.00
2019-05-05T10:08:10.389Z,12.20
2019-05-05T10:10:36.718Z,12.10
2019-05-05T10:13:04.332Z,11.60
2019-05-05T10:15:30.713Z,11.70
2019-05-05T10:17:57.564Z,12.00
2019-05-05T10:20:23.924Z,11.90
2019-05-05T10:22:50.316Z,12.20
2019-05-05T10:25:35.351Z,12.70
2019-05-05T10:28:04.237Z,13.10
2019-05-05T10:30:30.673Z,13.00
2019-05-05T10:32:57.006Z,12.50
2019-05-05T10:35:23.843Z,12.60
2019-05-05T10:37:50.363Z,12.80
2019-05-05T10:40:18.902Z,12.40
2019-05-05T10:42:53.693Z,12.80
2019-05-05T10:45:24.467Z,13.20
2019-05-05T10:47:51.352Z,13.60
2019-05-05T10:50:18.194Z,13.70
2019-05-05T10:52:44.629Z,13.30
2019-05-05T10:55:11.931Z,13.10
2019-05-05T10:57:38.565Z,12.40
2019-05-05T11:00:12.256Z,12.50
2019-05-05T11:02:34.929Z,12.00
2019-05-05T11:05:04.156Z,12.00
2019-05-05T11:07:30.810Z,12.40
2019-05-05T11:09:57.266Z,13.00
2019-05-05T11:12:24.672Z,13.60
2019-05-05T11:14:51.299Z,13.80
2019-05-05T11:17:17.590Z,13.70
2019-05-05T11:19:44.195Z,13.30
2019-05-05T11:22:10.979Z,13.60
2019-05-05T11:24:37.313Z,13.80
2019-05-05T11:27:04.521Z,14.00
2019-05-05T11:29:31.160Z,14.10
2019-05-05T11:31:59.359Z,13.60
2019-05-05T11:34:27.004Z,13.70
2019-05-05T11:36:55.452Z,13.50
2019-05-05T11:39:23.539Z,12.70
2019-05-05T11:41:50.448Z,13.20
2019-05-05T11:44:16.785Z,13.80
2019-05-05T11:46:44.283Z,13.90
2019-05-05T11:49:10.837Z,14.00
2019-05-05T11:51:37.176Z,15.10
2019-05-05T11:54:04.658Z,14.70
2019-05-05T11:56:31.602Z,15.10
2019-05-05T11:58:57.937Z,15.80
2019-05-05T12:01:25.167Z,16.20
2019-05-05T12:03:53.460Z,17.30
2019-05-05T12:06:19.769Z,18.10
2019-05-05T12:08:46.177Z,18.70
2019-05-05T12:11:14.847Z,19.30
2019-05-05T12:13:43.962Z,19.80
2019-05-05T12:16:13.611Z,20.10
2019-05-05T12:18:39.944Z,18.70
2019-05-05T12:21:06.284Z,17.60
2019-05-05T12:23:34.069Z,16.30
2019-05-05T12:26:17.675Z,16.30
2019-05-05T12:28:49.477Z,16.00
2019-05-05T12:31:17.726Z,16.70
2019-05-05T12:33:44.352Z,16.60
2019-05-05T12:36:11.003Z,17.00
2019-05-05T12:38:37.350Z,16.20
2019-05-05T12:41:04.425Z,15.50
2019-05-05T12:43:40.019Z,15.00
2019-05-05T12:46:26.631Z,14.70
2019-05-05T12:48:55.158Z,14.00
2019-05-05T12:51:23.609Z,13.00
2019-05-05T12:53:50.261Z,13.00
2019-05-05T12:56:16.871Z,12.90
2019-05-05T12:58:44.032Z,13.50
2019-05-05T13:01:15.660Z,14.50
2019-05-05T13:03:43.703Z,16.20
2019-05-05T13:06:11.439Z,17.40
2019-05-05T13:08:38.180Z,18.50
2019-05-05T13:11:05.127Z,20.50
2019-05-05T13:13:31.640Z,21.50
2019-05-05T13:15:58.087Z,23.20
2019-05-05T13:18:24.608Z,22.50
2019-05-05T13:20:57.440Z,20.80
2019-05-05T13:23:44.447Z,23.90
2019-05-05T13:26:29.297Z,25.00
2019-05-05T13:28:55.650Z,24.30
2019-05-05T13:31:22.043Z,25.10
2019-05-05T13:33:48.493Z,27.00
2019-05-05T13:36:15.448Z,26.00
2019-05-05T13:38:43.773Z,24.40
2019-05-05T13:41:15.846Z,22.30
2019-05-05T13:43:42.638Z,21.30
2019-05-05T13:46:16.905Z,19.80
2019-05-05T13:48:46.030Z,19.20
2019-05-05T13:51:17.024Z,18.50
2019-05-05T13:53:44.733Z,17.90
2019-05-05T13:56:15.263Z,17.60
2019-05-05T13:58:40.979Z,17.50
2019-05-05T14:01:09.845Z,17.70
2019-05-05T14:03:36.038Z,18.10
2019-05-05T14:06:04.586Z,18.50
2019-05-05T14:08:35.601Z,19.30
2019-05-05T14:11:00.514Z,19.70
2019-05-05T14:13:27.142Z,20.00
2019-05-05T14:15:54.496Z,21.00
2019-05-05T14:18:21.157Z,20.70
2019-05-05T14:20:47.669Z,20.40
2019-05-05T14:23:14.951Z,21.50
2019-05-05T14:25:41.432Z,20.30
2019-05-05T14:28:07.850Z,17.90
2019-05-05T14:30:46.330Z,17.40
2019-05-05T14:33:14.894Z,16.60
2019-05-05T14:35:48.942Z,15.60
2019-05-05T14:38:25.724Z,14.90
2019-05-05T14:40:53.778Z,14.30
2019-05-05T14:43:20.489Z,14.10
2019-05-05T14:45:46.927Z,13.80
2019-05-05T14:48:14.629Z,13.30
2019-05-05T14:50:41.028Z,12.90
2019-05-05T14:53:07.357Z,12.60
2019-05-05T14:55:33.722Z,11.60
2019-05-05T14:58:00.981Z,11.10
2019-05-05T15:00:28.584Z,11.00
2019-05-05T15:02:55.278Z,11.20
2019-05-05T15:05:39.904Z,11.30
2019-05-05T15:08:07.052Z,11.30
2019-05-05T15:10:47.447Z,11.60
2019-05-05T15:13:16.145Z,11.70
2019-05-05T15:15:42.945Z,12.00
2019-05-05T15:18:10.397Z,11.80
2019-05-05T15:20:36.866Z,12.00
2019-05-05T15:23:04.737Z,12.20
2019-05-05T15:25:34.135Z,12.10
2019-05-05T15:28:00.726Z,12.70
2019-05-05T15:30:27.336Z,13.30
2019-05-05T15:32:54.183Z,13.70
2019-05-05T15:35:22.147Z,14.40
2019-05-05T15:37:48.730Z,16.40
2019-05-05T15:40:16.472Z,17.60
2019-05-05T15:42:43.947Z,19.00
2019-05-05T15:45:10.798Z,20.90
2019-05-05T15:47:37.222Z,22.90
2019-05-05T15:50:05.682Z,25.20
2019-05-05T15:52:32.037Z,24.80
2019-05-05T15:54:58.402Z,25.10
2019-05-05T15:57:25.108Z,23.00
2019-05-05T15:59:51.639Z,21.50
2019-05-05T16:02:18.731Z,23.00
2019-05-05T16:04:46.160Z,23.90
2019-05-05T16:07:13.900Z,24.50
2019-05-05T16:09:41.598Z,23.90
2019-05-05T16:12:08.048Z,22.10
2019-05-05T16:14:36.343Z,21.60
2019-05-05T16:17:10.469Z,22.10
2019-05-05T16:19:46.169Z,23.20
2019-05-05T16:22:17.540Z,23.30
2019-05-05T16:24:45.788Z,21.90
2019-05-05T16:27:19.484Z,22.50
2019-05-05T16:29:40.470Z,21.30
2019-05-05T16:32:18.448Z,18.90
2019-05-05T16:34:36.117Z,16.30
2019-05-05T16:37:03.880Z,15.00
2019-05-05T16:39:33.557Z,14.50
2019-05-05T16:42:00.347Z,13.80
2019-05-05T16:44:27.438Z,13.10
2019-05-05T16:46:54.058Z,12.60
2019-05-05T16:49:20.818Z,12.70
2019-05-05T16:52:00.525Z,12.50
2019-05-05T16:54:27.875Z,12.20
2019-05-05T16:56:55.231Z,12.10
2019-05-05T16:59:23.850Z,11.60
2019-05-05T17:01:50.168Z,11.30
2019-05-05T17:04:16.877Z,11.10
2019-05-05T17:06:45.488Z,11.00
2019-05-05T17:09:11.580Z,10.80
2019-05-05T17:11:38.448Z,10.90
2019-05-05T17:14:18.682Z,11.00
2019-05-05T17:16:49.789Z,10.70
2019-05-05T17:19:16.579Z,10.90
2019-05-05T17:22:01.433Z,10.90
2019-05-05T17:24:27.796Z,11.00
2019-05-05T17:26:54.869Z,11.30
2019-05-05T17:29:23.496Z,12.20
2019-05-05T17:31:49.816Z,13.80
2019-05-05T17:34:16.559Z,12.60
2019-05-05T17:36:45.127Z,12.20
2019-05-05T17:39:11.318Z,11.80
2019-05-05T17:41:50.433Z,11.50
2019-05-05T17:44:33.734Z,11.10
2019-05-05T17:47:00.152Z,11.00
2019-05-05T17:49:28.649Z,10.80
2019-05-05T17:52:03.900Z,10.60
2019-05-05T17:54:35.669Z,10.60
2019-05-05T17:57:04.070Z,10.60
2019-05-05T17:59:33.767Z,10.50
2019-05-05T18:02:04.728Z,10.30
2019-05-05T18:04:40.009Z,10.10
2019-05-05T18:07:14.304Z,10.00
2019-05-05T18:10:00.633Z,10.00
2019-05-05T18:12:45.619Z,9.90
2019-05-05T18:15:30.644Z,9.80
2019-05-05T18:17:57.338Z,9.70
2019-05-05T18:20:24.361Z,9.50
2019-05-05T18:22:50.867Z,9.50
2019-05-05T18:25:17.173Z,9.40
2019-05-05T18:27:43.561Z,9.30
2019-05-05T18:30:10.530Z,9.20
2019-05-05T18:32:36.968Z,9.10
2019-05-05T18:35:06.602Z,9.00
2019-05-05T18:37:34.007Z,8.80
2019-05-05T18:40:00.579Z,8.70
2019-05-05T18:42:26.980Z,8.60
2019-05-05T18:44:55.348Z,8.50
2019-05-05T18:47:21.812Z,8.40
2019-05-05T18:49:48.215Z,8.30
2019-05-05T18:52:14.683Z,8.20
2019-05-05T18:54:41.014Z,8.00
2019-05-05T18:57:08.787Z,7.80
2019-05-05T18:59:35.177Z,7.60
2019-05-05T19:02:19.699Z,7.50
2019-05-05T19:04:57.473Z,7.50
2019-05-05T19:07:33.698Z,7.40
2019-05-05T19:10:00.520Z,7.30
2019-05-05T19:12:26.920Z,7.20
2019-05-05T19:14:54.969Z,7.10
2019-05-05T19:17:23.430Z,7.00
2019-05-05T19:19:54.663Z,7.00
2019-05-05T19:22:20.936Z,7.00
2019-05-05T19:24:47.331Z,7.00
2019-05-05T19:27:24.254Z,6.90
2019-05-05T19:29:51.288Z,6.80
2019-05-05T19:32:19.778Z,6.80
2019-05-05T19:34:47.357Z,6.80
2019-05-05T19:37:14.074Z,6.80
2019-05-05T19:39:41.243Z,6.80
2019-05-05T19:42:09.026Z,6.80
2019-05-05T19:44:35.861Z,6.80
2019-05-05T19:47:05.916Z,6.70
2019-05-05T19:49:33.761Z,6.70
2019-05-05T19:52:00.398Z,6.80
2019-05-05T19:54:27.183Z,6.70
2019-05-05T19:56:54.215Z,6.70
2019-05-05T19:59:21.287Z,6.70
2019-05-05T20:01:47.977Z,6.70
2019-05-05T20:04:14.859Z,6.70
2019-05-05T20:06:44.145Z,6.70
2019-05-05T20:09:11.354Z,6.60
2019-05-05T20:11:37.833Z,6.40
2019-05-05T20:14:09.830Z,6.40
2019-05-05T20:16:51.085Z,6.20
2019-05-05T20:19:17.607Z,6.20
2019-05-05T20:21:44.036Z,6.10
2019-05-05T20:24:10.474Z,6.00
2019-05-05T20:26:38.275Z,6.00
2019-05-05T20:29:13.970Z,6.00
2019-05-05T20:31:34.687Z,6.00
2019-05-05T20:34:05.291Z,5.90
2019-05-05T20:36:34.616Z,5.90
2019-05-05T20:39:01.349Z,5.90
2019-05-05T20:41:29.716Z,5.80
2019-05-05T20:43:56.281Z,5.80
2019-05-05T20:46:23.742Z,5.80
2019-05-05T20:48:50.507Z,5.70
2019-05-05T20:51:17.167Z,5.70
2019-05-05T20:53:44.780Z,5.60
2019-05-05T20:56:12.177Z,5.60
2019-05-05T20:58:38.630Z,5.60
2019-05-05T21:01:05.011Z,5.60
2019-05-05T21:03:31.340Z,5.60
2019-05-05T21:05:57.905Z,5.60
2019-05-05T21:08:25.029Z,5.50
2019-05-05T21:10:53.700Z,5.50
2019-05-05T21:13:20.250Z,5.50
2019-05-05T21:15:46.602Z,5.50
2019-05-05T21:18:14.387Z,5.40
2019-05-05T21:20:41.748Z,5.40
2019-05-05T21:23:10.429Z,5.40
2019-05-05T21:25:44.279Z,5.30
2019-05-05T21:28:10.292Z,5.20
2019-05-05T21:30:36.698Z,5.20
2019-05-05T21:33:04.467Z,5.20
2019-05-05T21:35:31.650Z,5.20
2019-05-05T21:37:58.281Z,5.10
2019-05-05T21:40:25.927Z,5.10
2019-05-05T21:42:54.158Z,5.10
2019-05-05T21:45:20.807Z,5.10
2019-05-05T21:47:47.284Z,5.10
2019-05-05T21:50:15.818Z,5.10
2019-05-05T21:52:44.189Z,5.00
2019-05-05T21:55:27.994Z,5.00
2019-05-05T21:57:57.165Z,5.00
2019-05-05T22:00:59.861Z,4.90
2019-05-05T22:03:27.065Z,4.90
2019-05-05T22:05:53.962Z,4.90
2019-05-05T22:08:23.841Z,4.90
2019-05-05T22:10:49.999Z,4.90
2019-05-05T22:13:16.341Z,4.90
2019-05-05T22:15:43.580Z,4.80
2019-05-05T22:18:10.108Z,4.80
2019-05-05T22:20:41.324Z,4.80
2019-05-05T22:23:07.655Z,4.80
2019-05-05T22:25:34.214Z,4.80
2019-05-05T22:28:00.721Z,4.70
2019-05-05T22:30:27.063Z,4.70
2019-05-05T22:32:53.423Z,4.70
2019-05-05T22:35:19.793Z,4.60
2019-05-05T22:37:46.125Z,4.60
2019-05-05T22:40:24.463Z,4.50
2019-05-05T22:42:51.043Z,4.50
2019-05-05T22:45:19.271Z,4.50
2019-05-05T22:47:45.617Z,4.50
2019-05-05T22:50:13.886Z,4.40
2019-05-05T22:52:41.412Z,4.40
2019-05-05T22:55:08.634Z,4.50
2019-05-05T22:57:35.198Z,4.40
2019-05-05T23:00:04.065Z,4.40
2019-05-05T23:02:34.211Z,4.30
2019-05-05T23:05:10.684Z,4.30
2019-05-05T23:07:37.533Z,4.30
2019-05-05T23:10:05.198Z,4.30
2019-05-05T23:12:31.660Z,4.30
2019-05-05T23:14:58.064Z,4.30
2019-05-05T23:17:34.157Z,4.30
2019-05-05T23:20:19.144Z,4.30
2019-05-05T23:22:47.513Z,4.20
2019-05-05T23:25:14.537Z,4.20
2019-05-05T23:27:49.624Z,4.10
2019-05-05T23:30:18.238Z,4.20
2019-05-05T23:32:45.815Z,4.00
2019-05-05T23:35:14.249Z,3.90
2019-05-05T23:37:41.451Z,3.90
2019-05-05T23:40:08.293Z,3.90
2019-05-05T23:42:34.674Z,4.00
2019-05-05T23:45:01.074Z,4.00
2019-05-05T23:47:27.415Z,4.00
2019-05-05T23:49:53.896Z,3.90
2019-05-05T23:52:20.317Z,4.00
2019-05-05T23:54:46.668Z,4.00
2019-05-05T23:57:13.773Z,4.00
2019-05-05T23:59:40.402Z,4.10
